sensor_id;sensor_type;location;lat;lon;timestamp;P1;durP1;ratioP1;P2;durP2;ratioP2
40907;SDS011;51055;59.436;24.778;2023-07-29T00:00:46;6.22;;;3.65;;
40907;SDS011;51055;59.436;24.778;2023-07-29T00:03:14;5.50;;;3.25;;
40907;SDS011;51055;59.436;24.778;2023-07-29T00:05:41;7.13;;;3.60;;
40907;SDS011;51055;59.436;24.778;2023-07-29T00:08:08;6.03;;;3.80;;
40907;SDS011;51055;59.436;24.778;2023-07-29T00:10:36;7.38;;;4.38;;
40907;SDS011;51055;59.436;24.778;2023-07-29T00:13:07;6.35;;;3.60;;
40907;SDS011;51055;59.436;24.778;2023-07-29T00:15:34;7.13;;;3.60;;
40907;SDS011;51055;59.436;24.778;2023-07-29T00:18:01;5.53;;;3.28;;
40907;SDS011;51055;59.436;24.778;2023-07-29T00:20:29;8.77;;;3.90;;
40907;SDS011;51055;59.436;24.778;2023-07-29T00:22:56;6.28;;;3.30;;
40907;SDS011;51055;59.436;24.778;2023-07-29T00:25:25;6.55;;;3.35;;
40907;SDS011;51055;59.436;24.778;2023-07-29T00:27:54;7.43;;;3.33;;
40907;SDS011;51055;59.436;24.778;2023-07-29T00:30:21;7.70;;;3.72;;
40907;SDS011;51055;59.436;24.778;2023-07-29T00:32:48;6.95;;;3.20;;
40907;SDS011;51055;59.436;24.778;2023-07-29T00:35:16;5.43;;;2.92;;
40907;SDS011;51055;59.436;24.778;2023-07-29T00:37:43;6.53;;;2.97;;
40907;SDS011;51055;59.436;24.778;2023-07-29T00:40:20;6.45;;;3.50;;
40907;SDS011;51055;59.436;24.778;2023-07-29T00:42:48;6.22;;;2.83;;
40907;SDS011;51055;59.436;24.778;2023-07-29T00:45:16;5.63;;;2.72;;
40907;SDS011;51055;59.436;24.778;2023-07-29T00:47:43;5.72;;;3.20;;
40907;SDS011;51055;59.436;24.778;2023-07-29T00:50:11;6.65;;;3.00;;
40907;SDS011;51055;59.436;24.778;2023-07-29T00:52:39;6.05;;;3.30;;
40907;SDS011;51055;59.436;24.778;2023-07-29T00:55:06;6.25;;;3.13;;
40907;SDS011;51055;59.436;24.778;2023-07-29T00:57:34;4.75;;;2.85;;
40907;SDS011;51055;59.436;24.778;2023-07-29T01:00:02;5.22;;;2.65;;
40907;SDS011;51055;59.436;24.778;2023-07-29T01:02:31;7.07;;;3.53;;
40907;SDS011;51055;59.436;24.778;2023-07-29T01:05:00;5.82;;;3.10;;
40907;SDS011;51055;59.436;24.778;2023-07-29T01:15:22;7.07;;;3.70;;
40907;SDS011;51055;59.436;24.778;2023-07-29T01:18:02;5.20;;;2.73;;
40907;SDS011;51055;59.436;24.778;2023-07-29T01:20:34;6.20;;;3.17;;
40907;SDS011;51055;59.436;24.778;2023-07-29T01:23:04;5.38;;;3.03;;
40907;SDS011;51055;59.436;24.778;2023-07-29T01:25:31;7.10;;;2.83;;
40907;SDS011;51055;59.436;24.778;2023-07-29T01:27:58;6.00;;;3.20;;
40907;SDS011;51055;59.436;24.778;2023-07-29T01:30:29;5.63;;;3.05;;
40907;SDS011;51055;59.436;24.778;2023-07-29T01:37:58;5.85;;;2.92;;
40907;SDS011;51055;59.436;24.778;2023-07-29T01:40:28;6.75;;;2.78;;
40907;SDS011;51055;59.436;24.778;2023-07-29T01:42:55;5.80;;;2.55;;
40907;SDS011;51055;59.436;24.778;2023-07-29T01:45:23;6.28;;;2.97;;
40907;SDS011;51055;59.436;24.778;2023-07-29T01:47:53;6.32;;;2.97;;
40907;SDS011;51055;59.436;24.778;2023-07-29T01:50:21;5.13;;;2.17;;
40907;SDS011;51055;59.436;24.778;2023-07-29T01:52:48;5.60;;;2.58;;
40907;SDS011;51055;59.436;24.778;2023-07-29T01:55:16;4.60;;;2.17;;
40907;SDS011;51055;59.436;24.778;2023-07-29T01:57:43;5.53;;;2.83;;
40907;SDS011;51055;59.436;24.778;2023-07-29T02:00:12;5.22;;;2.38;;
40907;SDS011;51055;59.436;24.778;2023-07-29T02:02:39;4.38;;;2.38;;
40907;SDS011;51055;59.436;24.778;2023-07-29T02:05:07;4.63;;;2.30;;
40907;SDS011;51055;59.436;24.778;2023-07-29T02:07:34;5.28;;;2.70;;
40907;SDS011;51055;59.436;24.778;2023-07-29T02:10:02;4.25;;;2.00;;
40907;SDS011;51055;59.436;24.778;2023-07-29T02:12:29;4.15;;;2.13;;
40907;SDS011;51055;59.436;24.778;2023-07-29T02:14:56;3.95;;;1.98;;
40907;SDS011;51055;59.436;24.778;2023-07-29T02:17:24;4.43;;;2.38;;
40907;SDS011;51055;59.436;24.778;2023-07-29T02:19:51;4.40;;;2.10;;
40907;SDS011;51055;59.436;24.778;2023-07-29T02:22:18;4.95;;;2.13;;
40907;SDS011;51055;59.436;24.778;2023-07-29T02:24:46;4.38;;;2.00;;
40907;SDS011;51055;59.436;24.778;2023-07-29T02:27:13;3.80;;;2.00;;
40907;SDS011;51055;59.436;24.778;2023-07-29T02:29:40;4.65;;;2.20;;
40907;SDS011;51055;59.436;24.778;2023-07-29T02:32:07;4.18;;;2.10;;
40907;SDS011;51055;59.436;24.778;2023-07-29T02:34:35;4.32;;;2.08;;
40907;SDS011;51055;59.436;24.778;2023-07-29T02:37:03;4.60;;;2.03;;
40907;SDS011;51055;59.436;24.778;2023-07-29T02:39:30;4.35;;;1.92;;
40907;SDS011;51055;59.436;24.778;2023-07-29T02:41:58;5.60;;;2.58;;
40907;SDS011;51055;59.436;24.778;2023-07-29T02:44:25;5.07;;;2.05;;
40907;SDS011;51055;59.436;24.778;2023-07-29T02:46:52;3.78;;;1.90;;
40907;SDS011;51055;59.436;24.778;2023-07-29T02:49:22;5.35;;;2.35;;
40907;SDS011;51055;59.436;24.778;2023-07-29T02:51:49;4.97;;;2.00;;
40907;SDS011;51055;59.436;24.778;2023-07-29T02:54:16;5.25;;;2.00;;
40907;SDS011;51055;59.436;24.778;2023-07-29T02:56:43;4.78;;;2.65;;
40907;SDS011;51055;59.436;24.778;2023-07-29T02:59:11;4.72;;;2.20;;
40907;SDS011;51055;59.436;24.778;2023-07-29T03:01:38;4.32;;;2.30;;
40907;SDS011;51055;59.436;24.778;2023-07-29T03:04:05;3.10;;;1.70;;
40907;SDS011;51055;59.436;24.778;2023-07-29T03:06:33;5.25;;;2.40;;
40907;SDS011;51055;59.436;24.778;2023-07-29T03:09:01;4.90;;;2.17;;
40907;SDS011;51055;59.436;24.778;2023-07-29T03:11:28;4.22;;;2.20;;
40907;SDS011;51055;59.436;24.778;2023-07-29T03:13:55;4.13;;;2.13;;
40907;SDS011;51055;59.436;24.778;2023-07-29T03:16:23;3.75;;;1.83;;
40907;SDS011;51055;59.436;24.778;2023-07-29T03:18:51;6.10;;;2.30;;
40907;SDS011;51055;59.436;24.778;2023-07-29T03:21:18;3.53;;;1.80;;
40907;SDS011;51055;59.436;24.778;2023-07-29T03:23:46;4.55;;;1.70;;
40907;SDS011;51055;59.436;24.778;2023-07-29T03:26:13;4.10;;;2.30;;
40907;SDS011;51055;59.436;24.778;2023-07-29T03:28:41;5.43;;;2.08;;
40907;SDS011;51055;59.436;24.778;2023-07-29T03:31:09;6.35;;;2.35;;
40907;SDS011;51055;59.436;24.778;2023-07-29T03:33:37;4.22;;;2.17;;
40907;SDS011;51055;59.436;24.778;2023-07-29T03:36:04;5.22;;;1.73;;
40907;SDS011;51055;59.436;24.778;2023-07-29T03:38:32;4.50;;;1.90;;
40907;SDS011;51055;59.436;24.778;2023-07-29T03:41:02;5.85;;;2.17;;
40907;SDS011;51055;59.436;24.778;2023-07-29T03:43:30;3.38;;;1.73;;
40907;SDS011;51055;59.436;24.778;2023-07-29T03:45:58;5.78;;;1.98;;
40907;SDS011;51055;59.436;24.778;2023-07-29T03:48:25;5.70;;;1.73;;
40907;SDS011;51055;59.436;24.778;2023-07-29T03:50:53;3.65;;;1.65;;
40907;SDS011;51055;59.436;24.778;2023-07-29T03:53:21;5.07;;;2.10;;
40907;SDS011;51055;59.436;24.778;2023-07-29T03:55:49;6.70;;;1.95;;
40907;SDS011;51055;59.436;24.778;2023-07-29T03:58:17;4.95;;;2.00;;
40907;SDS011;51055;59.436;24.778;2023-07-29T04:00:45;6.18;;;1.98;;
40907;SDS011;51055;59.436;24.778;2023-07-29T04:03:12;3.17;;;1.45;;
40907;SDS011;51055;59.436;24.778;2023-07-29T04:05:40;4.00;;;1.75;;
40907;SDS011;51055;59.436;24.778;2023-07-29T04:08:07;3.88;;;1.80;;
40907;SDS011;51055;59.436;24.778;2023-07-29T04:10:34;4.95;;;1.98;;
40907;SDS011;51055;59.436;24.778;2023-07-29T04:13:02;4.15;;;1.90;;
40907;SDS011;51055;59.436;24.778;2023-07-29T04:15:29;3.88;;;1.83;;
40907;SDS011;51055;59.436;24.778;2023-07-29T04:17:57;4.30;;;1.67;;
40907;SDS011;51055;59.436;24.778;2023-07-29T04:20:24;4.15;;;1.67;;
40907;SDS011;51055;59.436;24.778;2023-07-29T04:22:52;4.95;;;1.67;;
40907;SDS011;51055;59.436;24.778;2023-07-29T04:25:19;4.50;;;1.80;;
40907;SDS011;51055;59.436;24.778;2023-07-29T04:27:46;4.32;;;1.80;;
40907;SDS011;51055;59.436;24.778;2023-07-29T04:30:14;4.63;;;1.80;;
40907;SDS011;51055;59.436;24.778;2023-07-29T04:32:41;5.60;;;1.95;;
40907;SDS011;51055;59.436;24.778;2023-07-29T04:35:09;4.60;;;2.03;;
40907;SDS011;51055;59.436;24.778;2023-07-29T04:37:36;3.55;;;1.63;;
40907;SDS011;51055;59.436;24.778;2023-07-29T04:40:04;3.53;;;1.60;;
40907;SDS011;51055;59.436;24.778;2023-07-29T04:42:31;5.68;;;2.20;;
40907;SDS011;51055;59.436;24.778;2023-07-29T04:44:59;4.85;;;1.58;;
40907;SDS011;51055;59.436;24.778;2023-07-29T04:47:26;4.85;;;1.80;;
40907;SDS011;51055;59.436;24.778;2023-07-29T04:49:55;5.05;;;1.90;;
40907;SDS011;51055;59.436;24.778;2023-07-29T04:52:22;4.45;;;1.77;;
40907;SDS011;51055;59.436;24.778;2023-07-29T04:54:50;3.60;;;1.60;;
40907;SDS011;51055;59.436;24.778;2023-07-29T04:57:18;5.03;;;1.90;;
40907;SDS011;51055;59.436;24.778;2023-07-29T04:59:45;5.20;;;1.75;;
40907;SDS011;51055;59.436;24.778;2023-07-29T05:02:12;8.60;;;2.28;;
40907;SDS011;51055;59.436;24.778;2023-07-29T05:04:40;4.53;;;1.67;;
40907;SDS011;51055;59.436;24.778;2023-07-29T05:07:07;5.95;;;1.63;;
40907;SDS011;51055;59.436;24.778;2023-07-29T05:09:35;4.95;;;1.80;;
40907;SDS011;51055;59.436;24.778;2023-07-29T05:12:02;3.22;;;1.50;;
40907;SDS011;51055;59.436;24.778;2023-07-29T05:14:29;7.75;;;1.80;;
40907;SDS011;51055;59.436;24.778;2023-07-29T05:16:56;4.78;;;1.60;;
40907;SDS011;51055;59.436;24.778;2023-07-29T05:19:24;5.60;;;1.80;;
40907;SDS011;51055;59.436;24.778;2023-07-29T05:21:51;3.28;;;1.65;;
40907;SDS011;51055;59.436;24.778;2023-07-29T05:24:19;4.53;;;2.35;;
40907;SDS011;51055;59.436;24.778;2023-07-29T05:26:46;5.63;;;1.80;;
40907;SDS011;51055;59.436;24.778;2023-07-29T05:29:13;3.78;;;1.50;;
40907;SDS011;51055;59.436;24.778;2023-07-29T05:31:41;6.15;;;1.80;;
40907;SDS011;51055;59.436;24.778;2023-07-29T05:34:08;3.60;;;1.40;;
40907;SDS011;51055;59.436;24.778;2023-07-29T05:36:36;4.30;;;1.63;;
40907;SDS011;51055;59.436;24.778;2023-07-29T05:39:03;4.32;;;1.50;;
40907;SDS011;51055;59.436;24.778;2023-07-29T05:41:31;3.83;;;1.50;;
40907;SDS011;51055;59.436;24.778;2023-07-29T05:43:59;3.33;;;1.60;;
40907;SDS011;51055;59.436;24.778;2023-07-29T05:46:26;3.22;;;1.40;;
40907;SDS011;51055;59.436;24.778;2023-07-29T05:48:53;3.88;;;1.40;;
40907;SDS011;51055;59.436;24.778;2023-07-29T05:51:21;4.53;;;1.20;;
40907;SDS011;51055;59.436;24.778;2023-07-29T05:53:48;5.85;;;1.50;;
40907;SDS011;51055;59.436;24.778;2023-07-29T05:56:16;4.97;;;1.75;;
40907;SDS011;51055;59.436;24.778;2023-07-29T05:58:43;3.55;;;1.30;;
40907;SDS011;51055;59.436;24.778;2023-07-29T06:01:12;3.33;;;1.13;;
40907;SDS011;51055;59.436;24.778;2023-07-29T06:03:40;4.38;;;1.50;;
40907;SDS011;51055;59.436;24.778;2023-07-29T06:06:08;3.55;;;1.30;;
40907;SDS011;51055;59.436;24.778;2023-07-29T06:08:35;2.50;;;1.20;;
40907;SDS011;51055;59.436;24.778;2023-07-29T06:11:02;3.22;;;1.17;;
40907;SDS011;51055;59.436;24.778;2023-07-29T06:13:30;2.92;;;1.30;;
40907;SDS011;51055;59.436;24.778;2023-07-29T06:15:57;3.92;;;1.17;;
40907;SDS011;51055;59.436;24.778;2023-07-29T06:18:24;2.78;;;1.08;;
40907;SDS011;51055;59.436;24.778;2023-07-29T06:20:51;1.60;;;1.00;;
40907;SDS011;51055;59.436;24.778;2023-07-29T06:23:19;3.95;;;1.45;;
40907;SDS011;51055;59.436;24.778;2023-07-29T06:25:46;2.15;;;1.10;;
40907;SDS011;51055;59.436;24.778;2023-07-29T06:28:13;3.90;;;1.08;;
40907;SDS011;51055;59.436;24.778;2023-07-29T06:30:41;3.20;;;1.00;;
40907;SDS011;51055;59.436;24.778;2023-07-29T06:33:08;2.65;;;1.10;;
40907;SDS011;51055;59.436;24.778;2023-07-29T06:35:36;3.17;;;1.13;;
40907;SDS011;51055;59.436;24.778;2023-07-29T06:38:03;2.83;;;1.30;;
40907;SDS011;51055;59.436;24.778;2023-07-29T06:40:30;3.42;;;1.00;;
40907;SDS011;51055;59.436;24.778;2023-07-29T06:42:58;2.17;;;1.10;;
40907;SDS011;51055;59.436;24.778;2023-07-29T06:45:26;4.45;;;1.20;;
40907;SDS011;51055;59.436;24.778;2023-07-29T06:47:53;1.85;;;0.90;;
40907;SDS011;51055;59.436;24.778;2023-07-29T06:50:20;2.22;;;1.00;;
40907;SDS011;51055;59.436;24.778;2023-07-29T06:52:48;2.90;;;1.00;;
40907;SDS011;51055;59.436;24.778;2023-07-29T06:55:15;2.35;;;1.13;;
40907;SDS011;51055;59.436;24.778;2023-07-29T06:57:43;2.15;;;0.93;;
40907;SDS011;51055;59.436;24.778;2023-07-29T07:00:10;3.22;;;1.00;;
40907;SDS011;51055;59.436;24.778;2023-07-29T07:02:37;2.80;;;1.15;;
40907;SDS011;51055;59.436;24.778;2023-07-29T07:05:05;3.15;;;1.20;;
40907;SDS011;51055;59.436;24.778;2023-07-29T07:07:33;1.80;;;1.05;;
40907;SDS011;51055;59.436;24.778;2023-07-29T07:10:00;2.78;;;1.25;;
40907;SDS011;51055;59.436;24.778;2023-07-29T07:12:27;3.13;;;0.98;;
40907;SDS011;51055;59.436;24.778;2023-07-29T07:14:55;2.42;;;0.93;;
40907;SDS011;51055;59.436;24.778;2023-07-29T07:17:22;2.58;;;0.98;;
40907;SDS011;51055;59.436;24.778;2023-07-29T07:19:50;2.28;;;0.98;;
40907;SDS011;51055;59.436;24.778;2023-07-29T07:22:17;1.50;;;0.80;;
40907;SDS011;51055;59.436;24.778;2023-07-29T07:24:45;2.45;;;0.90;;
40907;SDS011;51055;59.436;24.778;2023-07-29T07:27:12;4.40;;;1.20;;
40907;SDS011;51055;59.436;24.778;2023-07-29T07:29:39;4.22;;;1.30;;
40907;SDS011;51055;59.436;24.778;2023-07-29T07:32:06;2.95;;;1.02;;
40907;SDS011;51055;59.436;24.778;2023-07-29T07:34:34;2.40;;;1.00;;
40907;SDS011;51055;59.436;24.778;2023-07-29T07:37:01;3.25;;;0.90;;
40907;SDS011;51055;59.436;24.778;2023-07-29T07:39:31;2.97;;;1.00;;
40907;SDS011;51055;59.436;24.778;2023-07-29T07:41:59;2.63;;;1.05;;
40907;SDS011;51055;59.436;24.778;2023-07-29T07:44:26;2.70;;;1.25;;
40907;SDS011;51055;59.436;24.778;2023-07-29T07:46:54;3.00;;;0.95;;
40907;SDS011;51055;59.436;24.778;2023-07-29T07:49:22;2.50;;;1.00;;
40907;SDS011;51055;59.436;24.778;2023-07-29T07:51:49;2.03;;;0.90;;
40907;SDS011;51055;59.436;24.778;2023-07-29T07:54:16;2.60;;;0.90;;
40907;SDS011;51055;59.436;24.778;2023-07-29T07:56:44;3.13;;;1.20;;
40907;SDS011;51055;59.436;24.778;2023-07-29T07:59:11;2.65;;;0.90;;
40907;SDS011;51055;59.436;24.778;2023-07-29T08:01:42;3.55;;;1.02;;
40907;SDS011;51055;59.436;24.778;2023-07-29T08:04:10;2.40;;;0.80;;
40907;SDS011;51055;59.436;24.778;2023-07-29T08:06:37;1.75;;;0.80;;
40907;SDS011;51055;59.436;24.778;2023-07-29T08:09:05;2.60;;;0.90;;
40907;SDS011;51055;59.436;24.778;2023-07-29T08:11:32;1.67;;;0.70;;
40907;SDS011;51055;59.436;24.778;2023-07-29T08:13:59;2.13;;;0.88;;
40907;SDS011;51055;59.436;24.778;2023-07-29T08:16:27;3.33;;;0.90;;
40907;SDS011;51055;59.436;24.778;2023-07-29T08:18:54;2.67;;;0.90;;
40907;SDS011;51055;59.436;24.778;2023-07-29T08:21:21;1.75;;;0.80;;
40907;SDS011;51055;59.436;24.778;2023-07-29T08:23:48;2.70;;;0.93;;
40907;SDS011;51055;59.436;24.778;2023-07-29T08:26:16;4.65;;;1.00;;
40907;SDS011;51055;59.436;24.778;2023-07-29T08:28:43;2.35;;;1.10;;
40907;SDS011;51055;59.436;24.778;2023-07-29T08:31:11;3.58;;;1.08;;
40907;SDS011;51055;59.436;24.778;2023-07-29T08:33:38;3.42;;;1.13;;
40907;SDS011;51055;59.436;24.778;2023-07-29T08:36:06;3.15;;;1.13;;
40907;SDS011;51055;59.436;24.778;2023-07-29T08:38:33;5.00;;;1.10;;
40907;SDS011;51055;59.436;24.778;2023-07-29T08:41:06;2.15;;;1.00;;
40907;SDS011;51055;59.436;24.778;2023-07-29T08:43:38;3.20;;;1.13;;
40907;SDS011;51055;59.436;24.778;2023-07-29T08:46:06;2.78;;;0.93;;
40907;SDS011;51055;59.436;24.778;2023-07-29T08:48:40;3.17;;;1.23;;
40907;SDS011;51055;59.436;24.778;2023-07-29T08:51:09;3.13;;;1.13;;
40907;SDS011;51055;59.436;24.778;2023-07-29T08:53:37;3.88;;;1.20;;
40907;SDS011;51055;59.436;24.778;2023-07-29T08:56:07;2.75;;;1.30;;
40907;SDS011;51055;59.436;24.778;2023-07-29T08:58:34;3.50;;;1.30;;
40907;SDS011;51055;59.436;24.778;2023-07-29T09:01:02;2.85;;;1.30;;
40907;SDS011;51055;59.436;24.778;2023-07-29T09:03:29;2.75;;;1.10;;
40907;SDS011;51055;59.436;24.778;2023-07-29T09:05:57;1.83;;;0.90;;
40907;SDS011;51055;59.436;24.778;2023-07-29T09:08:28;3.05;;;1.05;;
40907;SDS011;51055;59.436;24.778;2023-07-29T09:10:55;2.95;;;1.13;;
40907;SDS011;51055;59.436;24.778;2023-07-29T09:13:22;5.15;;;1.17;;
40907;SDS011;51055;59.436;24.778;2023-07-29T09:15:53;3.92;;;1.40;;
40907;SDS011;51055;59.436;24.778;2023-07-29T09:18:20;2.83;;;1.13;;
40907;SDS011;51055;59.436;24.778;2023-07-29T09:20:49;2.30;;;1.10;;
40907;SDS011;51055;59.436;24.778;2023-07-29T09:23:17;2.40;;;1.10;;
40907;SDS011;51055;59.436;24.778;2023-07-29T09:25:45;1.95;;;1.10;;
40907;SDS011;51055;59.436;24.778;2023-07-29T09:28:14;2.78;;;1.15;;
40907;SDS011;51055;59.436;24.778;2023-07-29T09:30:42;3.13;;;1.10;;
40907;SDS011;51055;59.436;24.778;2023-07-29T09:33:10;3.15;;;1.20;;
40907;SDS011;51055;59.436;24.778;2023-07-29T09:35:37;4.35;;;1.25;;
40907;SDS011;51055;59.436;24.778;2023-07-29T09:38:05;3.72;;;1.13;;
40907;SDS011;51055;59.436;24.778;2023-07-29T09:40:36;3.75;;;1.25;;
40907;SDS011;51055;59.436;24.778;2023-07-29T09:43:04;3.58;;;1.00;;
40907;SDS011;51055;59.436;24.778;2023-07-29T09:45:36;2.40;;;1.10;;
40907;SDS011;51055;59.436;24.778;2023-07-29T09:48:04;3.22;;;1.08;;
40907;SDS011;51055;59.436;24.778;2023-07-29T09:50:36;3.58;;;1.10;;
40907;SDS011;51055;59.436;24.778;2023-07-29T09:53:04;3.50;;;1.20;;
40907;SDS011;51055;59.436;24.778;2023-07-29T09:55:34;1.98;;;1.05;;
40907;SDS011;51055;59.436;24.778;2023-07-29T09:58:02;4.25;;;1.30;;
40907;SDS011;51055;59.436;24.778;2023-07-29T10:00:31;5.03;;;1.10;;
40907;SDS011;51055;59.436;24.778;2023-07-29T10:02:59;2.22;;;1.10;;
40907;SDS011;51055;59.436;24.778;2023-07-29T10:05:27;3.75;;;1.30;;
40907;SDS011;51055;59.436;24.778;2023-07-29T10:07:55;3.65;;;1.23;;
40907;SDS011;51055;59.436;24.778;2023-07-29T10:10:23;2.35;;;1.10;;
40907;SDS011;51055;59.436;24.778;2023-07-29T10:12:51;3.03;;;1.00;;
40907;SDS011;51055;59.436;24.778;2023-07-29T10:15:19;2.67;;;1.10;;
40907;SDS011;51055;59.436;24.778;2023-07-29T10:17:47;5.18;;;1.25;;
40907;SDS011;51055;59.436;24.778;2023-07-29T10:20:16;4.68;;;1.25;;
40907;SDS011;51055;59.436;24.778;2023-07-29T10:22:45;2.05;;;1.13;;
40907;SDS011;51055;59.436;24.778;2023-07-29T10:25:17;1.98;;;1.02;;
40907;SDS011;51055;59.436;24.778;2023-07-29T10:27:49;2.53;;;0.90;;
40907;SDS011;51055;59.436;24.778;2023-07-29T10:30:18;2.33;;;0.98;;
40907;SDS011;51055;59.436;24.778;2023-07-29T10:32:45;2.35;;;1.00;;
40907;SDS011;51055;59.436;24.778;2023-07-29T10:35:13;2.10;;;0.80;;
40907;SDS011;51055;59.436;24.778;2023-07-29T10:37:41;2.47;;;1.00;;
40907;SDS011;51055;59.436;24.778;2023-07-29T10:40:09;3.08;;;1.20;;
40907;SDS011;51055;59.436;24.778;2023-07-29T10:42:38;2.63;;;1.13;;
40907;SDS011;51055;59.436;24.778;2023-07-29T10:45:20;2.15;;;0.90;;
40907;SDS011;51055;59.436;24.778;2023-07-29T10:47:48;2.95;;;0.90;;
40907;SDS011;51055;59.436;24.778;2023-07-29T10:50:19;3.30;;;1.30;;
40907;SDS011;51055;59.436;24.778;2023-07-29T10:52:52;3.17;;;1.10;;
40907;SDS011;51055;59.436;24.778;2023-07-29T10:55:27;2.10;;;0.82;;
40907;SDS011;51055;59.436;24.778;2023-07-29T10:58:08;2.72;;;0.90;;
40907;SDS011;51055;59.436;24.778;2023-07-29T11:00:35;2.55;;;1.10;;
40907;SDS011;51055;59.436;24.778;2023-07-29T11:03:05;2.88;;;0.93;;
40907;SDS011;51055;59.436;24.778;2023-07-29T11:05:42;1.75;;;1.00;;
40907;SDS011;51055;59.436;24.778;2023-07-29T11:08:29;2.47;;;0.88;;
40907;SDS011;51055;59.436;24.778;2023-07-29T11:11:01;1.50;;;0.93;;
40907;SDS011;51055;59.436;24.778;2023-07-29T11:13:28;4.55;;;1.30;;
40907;SDS011;51055;59.436;24.778;2023-07-29T11:15:56;3.72;;;1.10;;
40907;SDS011;51055;59.436;24.778;2023-07-29T11:18:26;3.17;;;1.15;;
40907;SDS011;51055;59.436;24.778;2023-07-29T11:20:54;2.72;;;1.13;;
40907;SDS011;51055;59.436;24.778;2023-07-29T11:23:32;3.20;;;1.10;;
40907;SDS011;51055;59.436;24.778;2023-07-29T11:25:59;2.58;;;1.00;;
40907;SDS011;51055;59.436;24.778;2023-07-29T11:28:27;2.83;;;0.90;;
40907;SDS011;51055;59.436;24.778;2023-07-29T11:30:55;2.42;;;1.00;;
40907;SDS011;51055;59.436;24.778;2023-07-29T11:33:26;2.83;;;0.90;;
40907;SDS011;51055;59.436;24.778;2023-07-29T11:35:55;2.40;;;1.00;;
40907;SDS011;51055;59.436;24.778;2023-07-29T11:38:23;2.00;;;0.70;;
40907;SDS011;51055;59.436;24.778;2023-07-29T11:40:58;1.73;;;0.90;;
40907;SDS011;51055;59.436;24.778;2023-07-29T11:43:26;9.23;;;1.67;;
40907;SDS011;51055;59.436;24.778;2023-07-29T11:45:53;2.87;;;1.10;;
40907;SDS011;51055;59.436;24.778;2023-07-29T11:48:27;3.17;;;0.80;;
40907;SDS011;51055;59.436;24.778;2023-07-29T11:50:55;2.13;;;0.95;;
40907;SDS011;51055;59.436;24.778;2023-07-29T11:53:25;2.45;;;1.00;;
40907;SDS011;51055;59.436;24.778;2023-07-29T11:55:53;2.30;;;1.02;;
40907;SDS011;51055;59.436;24.778;2023-07-29T11:58:20;4.32;;;1.30;;
40907;SDS011;51055;59.436;24.778;2023-07-29T12:00:48;4.65;;;1.10;;
40907;SDS011;51055;59.436;24.778;2023-07-29T12:03:16;3.10;;;1.00;;
40907;SDS011;51055;59.436;24.778;2023-07-29T12:05:45;2.50;;;0.80;;
40907;SDS011;51055;59.436;24.778;2023-07-29T12:08:12;2.42;;;1.05;;
40907;SDS011;51055;59.436;24.778;2023-07-29T12:10:40;2.22;;;1.05;;
40907;SDS011;51055;59.436;24.778;2023-07-29T12:13:07;3.95;;;1.10;;
40907;SDS011;51055;59.436;24.778;2023-07-29T12:15:34;1.67;;;0.95;;
40907;SDS011;51055;59.436;24.778;2023-07-29T12:18:04;1.58;;;0.82;;
40907;SDS011;51055;59.436;24.778;2023-07-29T12:20:32;1.95;;;1.02;;
40907;SDS011;51055;59.436;24.778;2023-07-29T12:23:00;1.70;;;0.90;;
40907;SDS011;51055;59.436;24.778;2023-07-29T12:25:32;2.50;;;0.95;;
40907;SDS011;51055;59.436;24.778;2023-07-29T12:28:05;2.53;;;1.00;;
40907;SDS011;51055;59.436;24.778;2023-07-29T12:30:34;2.78;;;0.85;;
40907;SDS011;51055;59.436;24.778;2023-07-29T12:33:01;3.92;;;1.00;;
40907;SDS011;51055;59.436;24.778;2023-07-29T12:35:35;1.60;;;0.88;;
40907;SDS011;51055;59.436;24.778;2023-07-29T12:38:03;2.72;;;0.88;;
40907;SDS011;51055;59.436;24.778;2023-07-29T12:40:31;2.92;;;1.00;;
40907;SDS011;51055;59.436;24.778;2023-07-29T12:42:58;2.30;;;0.90;;
40907;SDS011;51055;59.436;24.778;2023-07-29T12:45:26;2.92;;;1.10;;
40907;SDS011;51055;59.436;24.778;2023-07-29T12:47:56;2.35;;;0.90;;
40907;SDS011;51055;59.436;24.778;2023-07-29T12:50:23;3.25;;;1.08;;
40907;SDS011;51055;59.436;24.778;2023-07-29T12:52:51;3.03;;;1.00;;
40907;SDS011;51055;59.436;24.778;2023-07-29T12:55:18;1.33;;;0.70;;
40907;SDS011;51055;59.436;24.778;2023-07-29T12:57:50;1.90;;;0.90;;
40907;SDS011;51055;59.436;24.778;2023-07-29T13:00:17;2.25;;;0.90;;
40907;SDS011;51055;59.436;24.778;2023-07-29T13:02:44;3.30;;;0.88;;
40907;SDS011;51055;59.436;24.778;2023-07-29T13:05:12;1.98;;;0.90;;
40907;SDS011;51055;59.436;24.778;2023-07-29T13:07:39;4.75;;;1.50;;
40907;SDS011;51055;59.436;24.778;2023-07-29T13:10:07;2.03;;;1.10;;
40907;SDS011;51055;59.436;24.778;2023-07-29T13:12:35;2.03;;;1.10;;
40907;SDS011;51055;59.436;24.778;2023-07-29T13:15:02;1.88;;;0.80;;
40907;SDS011;51055;59.436;24.778;2023-07-29T13:17:29;2.17;;;0.90;;
40907;SDS011;51055;59.436;24.778;2023-07-29T13:19:57;1.65;;;0.88;;
40907;SDS011;51055;59.436;24.778;2023-07-29T13:22:24;2.92;;;1.02;;
40907;SDS011;51055;59.436;24.778;2023-07-29T13:24:52;2.07;;;1.00;;
40907;SDS011;51055;59.436;24.778;2023-07-29T13:27:19;3.55;;;1.30;;
40907;SDS011;51055;59.436;24.778;2023-07-29T13:29:47;3.30;;;1.27;;
40907;SDS011;51055;59.436;24.778;2023-07-29T13:32:15;1.87;;;0.77;;
40907;SDS011;51055;59.436;24.778;2023-07-29T13:34:42;4.72;;;1.10;;
40907;SDS011;51055;59.436;24.778;2023-07-29T13:37:09;3.13;;;0.90;;
40907;SDS011;51055;59.436;24.778;2023-07-29T13:39:37;2.88;;;1.10;;
40907;SDS011;51055;59.436;24.778;2023-07-29T13:42:04;2.25;;;1.00;;
40907;SDS011;51055;59.436;24.778;2023-07-29T13:44:31;2.58;;;1.13;;
40907;SDS011;51055;59.436;24.778;2023-07-29T13:46:59;3.08;;;1.15;;
40907;SDS011;51055;59.436;24.778;2023-07-29T13:49:26;2.58;;;1.00;;
40907;SDS011;51055;59.436;24.778;2023-07-29T13:51:54;3.28;;;1.00;;
40907;SDS011;51055;59.436;24.778;2023-07-29T13:54:21;3.17;;;1.00;;
40907;SDS011;51055;59.436;24.778;2023-07-29T13:56:48;2.55;;;1.10;;
40907;SDS011;51055;59.436;24.778;2023-07-29T13:59:16;5.45;;;1.40;;
40907;SDS011;51055;59.436;24.778;2023-07-29T14:01:43;2.95;;;1.10;;
40907;SDS011;51055;59.436;24.778;2023-07-29T14:04:11;3.10;;;1.30;;
40907;SDS011;51055;59.436;24.778;2023-07-29T14:06:38;3.15;;;1.35;;
40907;SDS011;51055;59.436;24.778;2023-07-29T14:09:09;2.70;;;1.25;;
40907;SDS011;51055;59.436;24.778;2023-07-29T14:11:36;2.97;;;1.20;;
40907;SDS011;51055;59.436;24.778;2023-07-29T14:14:04;2.38;;;1.15;;
40907;SDS011;51055;59.436;24.778;2023-07-29T14:16:31;4.32;;;1.83;;
40907;SDS011;51055;59.436;24.778;2023-07-29T14:18:59;2.50;;;1.30;;
40907;SDS011;51055;59.436;24.778;2023-07-29T14:21:27;5.82;;;1.20;;
40907;SDS011;51055;59.436;24.778;2023-07-29T14:23:54;3.05;;;1.30;;
40907;SDS011;51055;59.436;24.778;2023-07-29T14:26:22;6.07;;;1.70;;
40907;SDS011;51055;59.436;24.778;2023-07-29T14:28:50;4.43;;;1.50;;
40907;SDS011;51055;59.436;24.778;2023-07-29T14:31:17;3.28;;;1.30;;
40907;SDS011;51055;59.436;24.778;2023-07-29T14:33:45;3.03;;;1.30;;
40907;SDS011;51055;59.436;24.778;2023-07-29T14:36:12;3.95;;;1.65;;
40907;SDS011;51055;59.436;24.778;2023-07-29T14:38:39;4.70;;;1.40;;
40907;SDS011;51055;59.436;24.778;2023-07-29T14:41:07;3.45;;;1.40;;
40907;SDS011;51055;59.436;24.778;2023-07-29T14:43:35;3.75;;;1.23;;
40907;SDS011;51055;59.436;24.778;2023-07-29T14:46:02;4.25;;;1.40;;
40907;SDS011;51055;59.436;24.778;2023-07-29T14:48:30;3.65;;;1.50;;
40907;SDS011;51055;59.436;24.778;2023-07-29T14:50:57;3.10;;;1.48;;